sensor_id;sensor_type;location;lat;lon;timestamp;P1;durP1;ratioP1;P2;durP2;ratioP2
7919;SDS011;18778;47.610;9.776;2023-04-24T00:01:32;1.30;;;1.20;;
7919;SDS011;18778;47.610;9.776;2023-04-24T00:03:59;2.00;;;1.33;;
7919;SDS011;18778;47.610;9.776;2023-04-24T00:06:25;1.30;;;1.20;;
7919;SDS011;18778;47.610;9.776;2023-04-24T00:08:58;1.30;;;1.30;;
7919;SDS011;18778;47.610;9.776;2023-04-24T00:11:25;1.60;;;1.50;;
7919;SDS011;18778;47.610;9.776;2023-04-24T00:14:00;1.77;;;1.20;;
7919;SDS011;18778;47.610;9.776;2023-04-24T00:16:26;1.40;;;1.40;;
7919;SDS011;18778;47.610;9.776;2023-04-24T00:18:51;1.50;;;1.40;;
7919;SDS011;18778;47.610;9.776;2023-04-24T00:21:18;2.50;;;1.30;;
7919;SDS011;18778;47.610;9.776;2023-04-24T00:23:43;1.40;;;1.30;;
7919;SDS011;18778;47.610;9.776;2023-04-24T00:26:09;1.33;;;1.23;;
7919;SDS011;18778;47.610;9.776;2023-04-24T00:28:35;1.43;;;1.43;;
7919;SDS011;18778;47.610;9.776;2023-04-24T00:31:01;1.67;;;1.10;;
7919;SDS011;18778;47.610;9.776;2023-04-24T00:33:27;1.53;;;1.40;;
7919;SDS011;18778;47.610;9.776;2023-04-24T00:35:52;1.30;;;1.30;;
7919;SDS011;18778;47.610;9.776;2023-04-24T00:38:18;1.37;;;1.23;;
7919;SDS011;18778;47.610;9.776;2023-04-24T00:40:44;1.23;;;1.20;;
7919;SDS011;18778;47.610;9.776;2023-04-24T00:43:10;1.80;;;1.70;;
7919;SDS011;18778;47.610;9.776;2023-04-24T00:45:36;2.10;;;1.60;;
7919;SDS011;18778;47.610;9.776;2023-04-24T00:48:01;3.90;;;1.60;;
7919;SDS011;18778;47.610;9.776;2023-04-24T00:50:27;1.50;;;1.40;;
7919;SDS011;18778;47.610;9.776;2023-04-24T00:52:54;1.20;;;1.20;;
7919;SDS011;18778;47.610;9.776;2023-04-24T00:55:20;1.70;;;1.60;;
7919;SDS011;18778;47.610;9.776;2023-04-24T00:57:45;1.47;;;1.43;;
7919;SDS011;18778;47.610;9.776;2023-04-24T01:00:12;1.90;;;1.60;;
7919;SDS011;18778;47.610;9.776;2023-04-24T01:02:39;1.50;;;1.40;;
7919;SDS011;18778;47.610;9.776;2023-04-24T01:05:09;1.30;;;1.30;;
7919;SDS011;18778;47.610;9.776;2023-04-24T01:07:34;1.30;;;1.30;;
7919;SDS011;18778;47.610;9.776;2023-04-24T01:10:01;1.40;;;1.40;;
7919;SDS011;18778;47.610;9.776;2023-04-24T01:12:27;1.43;;;1.33;;
7919;SDS011;18778;47.610;9.776;2023-04-24T01:14:54;1.10;;;1.10;;
7919;SDS011;18778;47.610;9.776;2023-04-24T01:17:20;1.47;;;1.40;;
7919;SDS011;18778;47.610;9.776;2023-04-24T01:19:46;1.40;;;1.40;;
7919;SDS011;18778;47.610;9.776;2023-04-24T01:22:14;1.20;;;1.20;;
7919;SDS011;18778;47.610;9.776;2023-04-24T01:24:41;2.63;;;1.47;;
7919;SDS011;18778;47.610;9.776;2023-04-24T01:27:08;1.57;;;1.40;;
7919;SDS011;18778;47.610;9.776;2023-04-24T01:29:35;1.20;;;1.20;;
7919;SDS011;18778;47.610;9.776;2023-04-24T01:32:01;1.40;;;1.40;;
7919;SDS011;18778;47.610;9.776;2023-04-24T01:34:28;1.30;;;1.30;;
7919;SDS011;18778;47.610;9.776;2023-04-24T01:36:54;1.20;;;1.20;;
7919;SDS011;18778;47.610;9.776;2023-04-24T01:39:21;1.03;;;1.03;;
7919;SDS011;18778;47.610;9.776;2023-04-24T01:41:50;1.27;;;1.27;;
7919;SDS011;18778;47.610;9.776;2023-04-24T01:44:16;1.83;;;1.33;;
7919;SDS011;18778;47.610;9.776;2023-04-24T01:46:43;1.60;;;1.50;;
7919;SDS011;18778;47.610;9.776;2023-04-24T01:49:08;1.87;;;1.73;;
7919;SDS011;18778;47.610;9.776;2023-04-24T01:51:34;1.70;;;1.60;;
7919;SDS011;18778;47.610;9.776;2023-04-24T01:53:59;1.80;;;1.70;;
7919;SDS011;18778;47.610;9.776;2023-04-24T01:56:25;1.67;;;1.57;;
7919;SDS011;18778;47.610;9.776;2023-04-24T01:58:58;3.80;;;2.10;;
7919;SDS011;18778;47.610;9.776;2023-04-24T02:01:25;1.67;;;1.50;;
7919;SDS011;18778;47.610;9.776;2023-04-24T02:03:51;1.20;;;1.20;;
7919;SDS011;18778;47.610;9.776;2023-04-24T02:06:17;1.77;;;1.67;;
7919;SDS011;18778;47.610;9.776;2023-04-24T02:08:42;1.37;;;1.30;;
7919;SDS011;18778;47.610;9.776;2023-04-24T02:11:08;1.43;;;1.37;;
7919;SDS011;18778;47.610;9.776;2023-04-24T02:13:34;1.57;;;1.47;;
7919;SDS011;18778;47.610;9.776;2023-04-24T02:16:00;1.30;;;1.30;;
7919;SDS011;18778;47.610;9.776;2023-04-24T02:18:26;2.00;;;1.20;;
7919;SDS011;18778;47.610;9.776;2023-04-24T02:20:51;1.30;;;1.30;;
7919;SDS011;18778;47.610;9.776;2023-04-24T02:23:17;1.50;;;1.40;;
7919;SDS011;18778;47.610;9.776;2023-04-24T02:25:43;1.57;;;1.50;;
7919;SDS011;18778;47.610;9.776;2023-04-24T02:28:08;1.23;;;1.20;;
7919;SDS011;18778;47.610;9.776;2023-04-24T02:30:34;1.17;;;1.17;;
7919;SDS011;18778;47.610;9.776;2023-04-24T02:32:59;1.33;;;1.23;;
7919;SDS011;18778;47.610;9.776;2023-04-24T02:35:25;1.63;;;1.53;;
7919;SDS011;18778;47.610;9.776;2023-04-24T02:37:50;1.50;;;1.40;;
7919;SDS011;18778;47.610;9.776;2023-04-24T02:40:16;1.40;;;1.30;;
7919;SDS011;18778;47.610;9.776;2023-04-24T02:42:42;1.40;;;1.40;;
7919;SDS011;18778;47.610;9.776;2023-04-24T02:45:08;1.27;;;1.27;;
7919;SDS011;18778;47.610;9.776;2023-04-24T02:47:34;4.37;;;1.47;;
7919;SDS011;18778;47.610;9.776;2023-04-24T02:49:59;2.07;;;1.30;;
7919;SDS011;18778;47.610;9.776;2023-04-24T02:52:25;1.60;;;1.50;;
7919;SDS011;18778;47.610;9.776;2023-04-24T02:54:50;1.50;;;1.30;;
7919;SDS011;18778;47.610;9.776;2023-04-24T02:57:16;1.47;;;1.33;;
7919;SDS011;18778;47.610;9.776;2023-04-24T02:59:42;1.00;;;1.00;;
7919;SDS011;18778;47.610;9.776;2023-04-24T03:02:07;1.40;;;1.30;;
7919;SDS011;18778;47.610;9.776;2023-04-24T03:04:33;1.67;;;1.67;;
7919;SDS011;18778;47.610;9.776;2023-04-24T03:06:59;1.17;;;1.17;;
7919;SDS011;18778;47.610;9.776;2023-04-24T03:09:24;1.30;;;1.30;;
7919;SDS011;18778;47.610;9.776;2023-04-24T03:11:50;1.13;;;1.13;;
7919;SDS011;18778;47.610;9.776;2023-04-24T03:14:16;1.30;;;1.30;;
7919;SDS011;18778;47.610;9.776;2023-04-24T03:16:41;1.60;;;1.50;;
7919;SDS011;18778;47.610;9.776;2023-04-24T03:19:07;1.43;;;1.43;;
7919;SDS011;18778;47.610;9.776;2023-04-24T03:21:33;1.80;;;1.70;;
7919;SDS011;18778;47.610;9.776;2023-04-24T03:24:00;1.23;;;1.23;;
7919;SDS011;18778;47.610;9.776;2023-04-24T03:26:26;2.37;;;1.40;;
7919;SDS011;18778;47.610;9.776;2023-04-24T03:28:51;1.20;;;1.20;;
7919;SDS011;18778;47.610;9.776;2023-04-24T03:31:17;1.20;;;1.20;;
7919;SDS011;18778;47.610;9.776;2023-04-24T03:33:44;1.40;;;1.27;;
7919;SDS011;18778;47.610;9.776;2023-04-24T03:36:09;2.30;;;1.10;;
7919;SDS011;18778;47.610;9.776;2023-04-24T03:38:35;1.30;;;1.20;;
7919;SDS011;18778;47.610;9.776;2023-04-24T03:41:01;1.13;;;1.13;;
7919;SDS011;18778;47.610;9.776;2023-04-24T03:43:26;1.00;;;1.00;;
7919;SDS011;18778;47.610;9.776;2023-04-24T03:45:53;1.60;;;1.10;;
7919;SDS011;18778;47.610;9.776;2023-04-24T03:48:18;1.77;;;1.30;;
7919;SDS011;18778;47.610;9.776;2023-04-24T03:50:44;1.20;;;1.10;;
7919;SDS011;18778;47.610;9.776;2023-04-24T03:53:10;1.30;;;1.30;;
7919;SDS011;18778;47.610;9.776;2023-04-24T03:55:36;1.17;;;1.10;;
7919;SDS011;18778;47.610;9.776;2023-04-24T03:58:02;1.40;;;1.40;;
7919;SDS011;18778;47.610;9.776;2023-04-24T04:00:28;1.10;;;1.10;;
7919;SDS011;18778;47.610;9.776;2023-04-24T04:02:56;1.30;;;1.20;;
7919;SDS011;18778;47.610;9.776;2023-04-24T04:05:22;1.43;;;1.33;;
7919;SDS011;18778;47.610;9.776;2023-04-24T04:07:48;2.10;;;1.40;;
7919;SDS011;18778;47.610;9.776;2023-04-24T04:10:14;1.20;;;1.20;;
7919;SDS011;18778;47.610;9.776;2023-04-24T04:12:40;1.37;;;1.30;;
7919;SDS011;18778;47.610;9.776;2023-04-24T04:15:05;1.20;;;1.20;;
7919;SDS011;18778;47.610;9.776;2023-04-24T04:17:32;1.37;;;1.30;;
7919;SDS011;18778;47.610;9.776;2023-04-24T04:19:58;1.50;;;1.43;;
7919;SDS011;18778;47.610;9.776;2023-04-24T04:22:23;1.30;;;1.30;;
7919;SDS011;18778;47.610;9.776;2023-04-24T04:24:49;1.50;;;1.40;;
7919;SDS011;18778;47.610;9.776;2023-04-24T04:27:16;1.53;;;1.43;;
7919;SDS011;18778;47.610;9.776;2023-04-24T04:29:43;1.57;;;1.40;;
7919;SDS011;18778;47.610;9.776;2023-04-24T04:32:09;1.80;;;1.70;;
7919;SDS011;18778;47.610;9.776;2023-04-24T04:34:35;2.00;;;1.90;;
7919;SDS011;18778;47.610;9.776;2023-04-24T04:37:02;1.50;;;1.50;;
7919;SDS011;18778;47.610;9.776;2023-04-24T04:39:28;1.90;;;1.80;;
7919;SDS011;18778;47.610;9.776;2023-04-24T04:41:55;1.50;;;1.50;;
7919;SDS011;18778;47.610;9.776;2023-04-24T04:44:21;1.80;;;1.70;;
7919;SDS011;18778;47.610;9.776;2023-04-24T04:46:48;1.37;;;1.37;;
7919;SDS011;18778;47.610;9.776;2023-04-24T04:49:15;1.67;;;1.57;;
7919;SDS011;18778;47.610;9.776;2023-04-24T04:52:02;1.67;;;1.57;;
7919;SDS011;18778;47.610;9.776;2023-04-24T04:54:27;2.90;;;1.80;;
7919;SDS011;18778;47.610;9.776;2023-04-24T04:56:53;9.50;;;4.00;;
7919;SDS011;18778;47.610;9.776;2023-04-24T04:59:20;1.60;;;1.50;;
7919;SDS011;18778;47.610;9.776;2023-04-24T05:01:46;1.67;;;1.57;;
7919;SDS011;18778;47.610;9.776;2023-04-24T05:04:12;1.87;;;1.77;;
7919;SDS011;18778;47.610;9.776;2023-04-24T05:06:38;1.40;;;1.40;;
7919;SDS011;18778;47.610;9.776;2023-04-24T05:09:04;1.10;;;1.10;;
7919;SDS011;18778;47.610;9.776;2023-04-24T05:11:33;2.27;;;1.20;;
7919;SDS011;18778;47.610;9.776;2023-04-24T05:13:59;2.33;;;2.00;;
7919;SDS011;18778;47.610;9.776;2023-04-24T05:16:25;1.20;;;1.20;;
7919;SDS011;18778;47.610;9.776;2023-04-24T05:18:51;1.63;;;1.50;;
7919;SDS011;18778;47.610;9.776;2023-04-24T05:21:17;2.57;;;2.37;;
7919;SDS011;18778;47.610;9.776;2023-04-24T05:23:43;1.50;;;1.30;;
7919;SDS011;18778;47.610;9.776;2023-04-24T05:26:12;1.70;;;1.63;;
7919;SDS011;18778;47.610;9.776;2023-04-24T05:28:39;1.70;;;1.60;;
7919;SDS011;18778;47.610;9.776;2023-04-24T05:31:14;1.80;;;1.70;;
7919;SDS011;18778;47.610;9.776;2023-04-24T05:33:42;1.60;;;1.50;;
7919;SDS011;18778;47.610;9.776;2023-04-24T05:36:09;1.23;;;1.23;;
7919;SDS011;18778;47.610;9.776;2023-04-24T05:38:35;1.00;;;1.00;;
7919;SDS011;18778;47.610;9.776;2023-04-24T05:41:01;1.50;;;1.50;;
7919;SDS011;18778;47.610;9.776;2023-04-24T05:43:27;1.80;;;1.70;;
7919;SDS011;18778;47.610;9.776;2023-04-24T05:45:53;1.67;;;1.30;;
7919;SDS011;18778;47.610;9.776;2023-04-24T05:48:19;2.03;;;1.70;;
7919;SDS011;18778;47.610;9.776;2023-04-24T05:50:46;1.17;;;1.07;;
7919;SDS011;18778;47.610;9.776;2023-04-24T05:53:13;1.10;;;1.00;;
7919;SDS011;18778;47.610;9.776;2023-04-24T05:55:39;2.93;;;1.50;;
7919;SDS011;18778;47.610;9.776;2023-04-24T05:58:07;3.67;;;1.53;;
7919;SDS011;18778;47.610;9.776;2023-04-24T06:00:34;1.23;;;1.13;;
7919;SDS011;18778;47.610;9.776;2023-04-24T06:03:00;1.10;;;1.10;;
7919;SDS011;18778;47.610;9.776;2023-04-24T06:05:28;2.33;;;1.60;;
7919;SDS011;18778;47.610;9.776;2023-04-24T06:07:55;6.70;;;2.87;;
7919;SDS011;18778;47.610;9.776;2023-04-24T06:10:21;1.80;;;1.70;;
7919;SDS011;18778;47.610;9.776;2023-04-24T06:12:50;2.13;;;1.90;;
7919;SDS011;18778;47.610;9.776;2023-04-24T06:15:16;3.87;;;2.23;;
7919;SDS011;18778;47.610;9.776;2023-04-24T06:17:45;1.87;;;1.77;;
7919;SDS011;18778;47.610;9.776;2023-04-24T06:20:13;1.97;;;1.43;;
7919;SDS011;18778;47.610;9.776;2023-04-24T06:22:39;1.90;;;1.80;;
7919;SDS011;18778;47.610;9.776;2023-04-24T06:25:08;1.57;;;1.47;;
7919;SDS011;18778;47.610;9.776;2023-04-24T06:27:36;1.53;;;1.43;;
7919;SDS011;18778;47.610;9.776;2023-04-24T06:30:02;1.20;;;1.20;;
7919;SDS011;18778;47.610;9.776;2023-04-24T06:32:31;1.57;;;1.50;;
7919;SDS011;18778;47.610;9.776;2023-04-24T06:34:57;1.43;;;1.33;;
7919;SDS011;18778;47.610;9.776;2023-04-24T06:37:28;1.73;;;1.63;;
7919;SDS011;18778;47.610;9.776;2023-04-24T06:39:57;3.37;;;1.60;;
7919;SDS011;18778;47.610;9.776;2023-04-24T06:42:26;2.07;;;1.93;;
7919;SDS011;18778;47.610;9.776;2023-04-24T06:44:52;1.70;;;1.60;;
7919;SDS011;18778;47.610;9.776;2023-04-24T06:47:21;1.63;;;1.40;;
7919;SDS011;18778;47.610;9.776;2023-04-24T06:49:50;1.57;;;1.43;;
7919;SDS011;18778;47.610;9.776;2023-04-24T06:52:17;2.30;;;1.30;;
7919;SDS011;18778;47.610;9.776;2023-04-24T06:54:43;1.40;;;1.30;;
7919;SDS011;18778;47.610;9.776;2023-04-24T06:57:09;1.63;;;1.53;;
7919;SDS011;18778;47.610;9.776;2023-04-24T06:59:35;1.40;;;1.27;;
7919;SDS011;18778;47.610;9.776;2023-04-24T07:02:07;2.07;;;1.40;;
7919;SDS011;18778;47.610;9.776;2023-04-24T07:04:33;1.50;;;1.40;;
7919;SDS011;18778;47.610;9.776;2023-04-24T07:07:02;1.50;;;1.40;;
7919;SDS011;18778;47.610;9.776;2023-04-24T07:09:29;1.70;;;1.60;;
7919;SDS011;18778;47.610;9.776;2023-04-24T07:11:58;3.60;;;1.37;;
7919;SDS011;18778;47.610;9.776;2023-04-24T07:14:24;4.20;;;1.67;;
7919;SDS011;18778;47.610;9.776;2023-04-24T07:16:50;5.87;;;1.70;;
7919;SDS011;18778;47.610;9.776;2023-04-24T07:19:18;1.97;;;1.87;;
7919;SDS011;18778;47.610;9.776;2023-04-24T07:21:47;1.70;;;1.40;;
7919;SDS011;18778;47.610;9.776;2023-04-24T07:24:13;2.00;;;1.90;;
7919;SDS011;18778;47.610;9.776;2023-04-24T07:26:39;1.77;;;1.67;;
7919;SDS011;18778;47.610;9.776;2023-04-24T07:29:05;2.57;;;1.83;;
7919;SDS011;18778;47.610;9.776;2023-04-24T07:31:31;1.73;;;1.60;;
7919;SDS011;18778;47.610;9.776;2023-04-24T07:33:57;1.67;;;1.60;;
7919;SDS011;18778;47.610;9.776;2023-04-24T07:36:26;2.10;;;1.90;;
7919;SDS011;18778;47.610;9.776;2023-04-24T07:38:52;2.27;;;2.10;;
7919;SDS011;18778;47.610;9.776;2023-04-24T07:41:22;2.57;;;2.20;;
7919;SDS011;18778;47.610;9.776;2023-04-24T07:43:49;2.13;;;2.00;;
7919;SDS011;18778;47.610;9.776;2023-04-24T07:46:18;2.53;;;2.33;;
7919;SDS011;18778;47.610;9.776;2023-04-24T07:48:48;2.43;;;2.20;;
7919;SDS011;18778;47.610;9.776;2023-04-24T07:51:14;2.30;;;2.10;;
7919;SDS011;18778;47.610;9.776;2023-04-24T07:53:41;2.60;;;2.40;;
7919;SDS011;18778;47.610;9.776;2023-04-24T07:56:10;2.23;;;2.10;;
7919;SDS011;18778;47.610;9.776;2023-04-24T07:58:36;2.70;;;2.50;;
7919;SDS011;18778;47.610;9.776;2023-04-24T08:01:05;2.73;;;2.50;;
7919;SDS011;18778;47.610;9.776;2023-04-24T08:03:31;2.83;;;2.30;;
7919;SDS011;18778;47.610;9.776;2023-04-24T08:05:57;2.80;;;2.40;;
7919;SDS011;18778;47.610;9.776;2023-04-24T08:08:23;2.47;;;2.37;;
7919;SDS011;18778;47.610;9.776;2023-04-24T08:10:49;3.77;;;2.40;;
7919;SDS011;18778;47.610;9.776;2023-04-24T08:13:15;2.70;;;2.60;;
7919;SDS011;18778;47.610;9.776;2023-04-24T08:15:41;2.40;;;2.30;;
7919;SDS011;18778;47.610;9.776;2023-04-24T08:18:07;3.40;;;2.70;;
7919;SDS011;18778;47.610;9.776;2023-04-24T08:20:33;4.10;;;2.47;;
7919;SDS011;18778;47.610;9.776;2023-04-24T08:23:00;2.53;;;2.33;;
7919;SDS011;18778;47.610;9.776;2023-04-24T08:25:26;3.80;;;2.80;;
7919;SDS011;18778;47.610;9.776;2023-04-24T08:27:52;2.70;;;2.10;;
7919;SDS011;18778;47.610;9.776;2023-04-24T08:30:18;2.90;;;2.50;;
7919;SDS011;18778;47.610;9.776;2023-04-24T08:32:44;2.20;;;2.00;;
7919;SDS011;18778;47.610;9.776;2023-04-24T08:35:10;2.00;;;1.90;;
7919;SDS011;18778;47.610;9.776;2023-04-24T08:37:36;1.93;;;1.83;;
7919;SDS011;18778;47.610;9.776;2023-04-24T08:40:06;4.40;;;1.50;;
7919;SDS011;18778;47.610;9.776;2023-04-24T08:42:39;2.60;;;1.60;;
7919;SDS011;18778;47.610;9.776;2023-04-24T08:45:05;1.37;;;1.27;;
7919;SDS011;18778;47.610;9.776;2023-04-24T08:47:31;1.67;;;1.57;;
7919;SDS011;18778;47.610;9.776;2023-04-24T08:49:58;1.63;;;1.53;;
7919;SDS011;18778;47.610;9.776;2023-04-24T08:52:27;1.47;;;1.47;;
7919;SDS011;18778;47.610;9.776;2023-04-24T08:54:54;1.70;;;1.60;;
7919;SDS011;18778;47.610;9.776;2023-04-24T08:57:23;1.27;;;1.27;;
7919;SDS011;18778;47.610;9.776;2023-04-24T08:59:51;1.07;;;1.07;;
7919;SDS011;18778;47.610;9.776;2023-04-24T09:02:17;1.67;;;1.57;;
7919;SDS011;18778;47.610;9.776;2023-04-24T09:04:43;1.63;;;1.53;;
7919;SDS011;18778;47.610;9.776;2023-04-24T09:07:10;1.30;;;1.30;;
7919;SDS011;18778;47.610;9.776;2023-04-24T09:09:37;2.10;;;1.57;;
7919;SDS011;18778;47.610;9.776;2023-04-24T09:12:04;1.93;;;1.80;;
7919;SDS011;18778;47.610;9.776;2023-04-24T09:14:31;1.57;;;1.53;;
7919;SDS011;18778;47.610;9.776;2023-04-24T09:16:57;2.70;;;2.20;;
7919;SDS011;18778;47.610;9.776;2023-04-24T09:19:23;2.40;;;2.20;;
7919;SDS011;18778;47.610;9.776;2023-04-24T09:21:49;2.93;;;2.17;;
7919;SDS011;18778;47.610;9.776;2023-04-24T09:24:19;2.40;;;2.30;;
7919;SDS011;18778;47.610;9.776;2023-04-24T09:26:48;2.10;;;1.90;;
7919;SDS011;18778;47.610;9.776;2023-04-24T09:29:22;2.10;;;1.90;;
7919;SDS011;18778;47.610;9.776;2023-04-24T09:31:48;3.73;;;2.50;;
7919;SDS011;18778;47.610;9.776;2023-04-24T09:34:13;2.50;;;2.40;;
7919;SDS011;18778;47.610;9.776;2023-04-24T09:36:40;2.67;;;2.30;;
7919;SDS011;18778;47.610;9.776;2023-04-24T09:39:11;2.50;;;2.30;;
7919;SDS011;18778;47.610;9.776;2023-04-24T09:41:43;3.17;;;2.73;;
7919;SDS011;18778;47.610;9.776;2023-04-24T09:44:11;3.57;;;3.10;;
7919;SDS011;18778;47.610;9.776;2023-04-24T09:46:41;3.00;;;2.73;;
7919;SDS011;18778;47.610;9.776;2023-04-24T09:49:08;3.90;;;2.97;;
7919;SDS011;18778;47.610;9.776;2023-04-24T09:51:41;3.23;;;3.00;;
7919;SDS011;18778;47.610;9.776;2023-04-24T09:54:14;4.20;;;3.27;;
7919;SDS011;18778;47.610;9.776;2023-04-24T09:56:47;3.90;;;3.20;;
7919;SDS011;18778;47.610;9.776;2023-04-24T09:59:17;5.77;;;3.60;;
7919;SDS011;18778;47.610;9.776;2023-04-24T10:01:56;5.80;;;3.77;;
7919;SDS011;18778;47.610;9.776;2023-04-24T10:04:24;4.50;;;4.10;;
7919;SDS011;18778;47.610;9.776;2023-04-24T10:06:52;5.63;;;4.07;;
7919;SDS011;18778;47.610;9.776;2023-04-24T10:09:21;4.80;;;4.00;;
7919;SDS011;18778;47.610;9.776;2023-04-24T10:11:49;4.00;;;3.70;;
7919;SDS011;18778;47.610;9.776;2023-04-24T10:14:17;5.27;;;4.07;;
7919;SDS011;18778;47.610;9.776;2023-04-24T10:16:44;7.60;;;4.87;;
7919;SDS011;18778;47.610;9.776;2023-04-24T10:19:12;6.50;;;4.30;;
7919;SDS011;18778;47.610;9.776;2023-04-24T10:21:38;5.53;;;3.70;;
7919;SDS011;18778;47.610;9.776;2023-04-24T10:24:07;4.30;;;3.90;;
7919;SDS011;18778;47.610;9.776;2023-04-24T10:26:34;4.07;;;3.77;;
7919;SDS011;18778;47.610;9.776;2023-04-24T10:29:00;4.10;;;3.60;;
7919;SDS011;18778;47.610;9.776;2023-04-24T10:31:27;3.53;;;3.10;;
7919;SDS011;18778;47.610;9.776;2023-04-24T10:33:56;4.17;;;3.20;;
7919;SDS011;18778;47.610;9.776;2023-04-24T10:36:22;4.07;;;3.63;;
7919;SDS011;18778;47.610;9.776;2023-04-24T10:38:51;4.30;;;3.03;;
7919;SDS011;18778;47.610;9.776;2023-04-24T10:41:19;4.77;;;3.10;;
7919;SDS011;18778;47.610;9.776;2023-04-24T10:43:48;4.20;;;3.23;;
7919;SDS011;18778;47.610;9.776;2023-04-24T10:46:21;4.47;;;3.60;;
7919;SDS011;18778;47.610;9.776;2023-04-24T10:48:54;4.87;;;3.80;;
7919;SDS011;18778;47.610;9.776;2023-04-24T10:51:21;4.60;;;3.57;;
7919;SDS011;18778;47.610;9.776;2023-04-24T10:53:48;4.93;;;3.37;;
7919;SDS011;18778;47.610;9.776;2023-04-24T10:56:15;3.43;;;3.13;;
7919;SDS011;18778;47.610;9.776;2023-04-24T10:58:42;5.87;;;3.57;;
7919;SDS011;18778;47.610;9.776;2023-04-24T11:04:12;6.57;;;3.23;;
7919;SDS011;18778;47.610;9.776;2023-04-24T11:06:46;5.23;;;3.33;;
7919;SDS011;18778;47.610;9.776;2023-04-24T11:09:16;8.53;;;6.20;;
7919;SDS011;18778;47.610;9.776;2023-04-24T11:11:46;5.00;;;4.47;;
7919;SDS011;18778;47.610;9.776;2023-04-24T11:14:16;5.07;;;4.57;;
7919;SDS011;18778;47.610;9.776;2023-04-24T11:16:46;4.53;;;4.13;;
7919;SDS011;18778;47.610;9.776;2023-04-24T11:19:18;3.87;;;3.53;;
7919;SDS011;18778;47.610;9.776;2023-04-24T11:21:45;5.17;;;3.60;;
7919;SDS011;18778;47.610;9.776;2023-04-24T11:24:23;6.23;;;3.50;;
7919;SDS011;18778;47.610;9.776;2023-04-24T11:34:56;3.13;;;2.60;;
7919;SDS011;18778;47.610;9.776;2023-04-24T11:37:22;4.03;;;2.53;;
7919;SDS011;18778;47.610;9.776;2023-04-24T11:39:50;2.83;;;2.40;;
7919;SDS011;18778;47.610;9.776;2023-04-24T11:42:16;4.63;;;2.53;;
7919;SDS011;18778;47.610;9.776;2023-04-24T11:44:44;2.70;;;2.10;;
7919;SDS011;18778;47.610;9.776;2023-04-24T11:47:12;3.90;;;2.40;;
7919;SDS011;18778;47.610;9.776;2023-04-24T11:49:38;3.33;;;2.27;;
7919;SDS011;18778;47.610;9.776;2023-04-24T11:52:04;3.17;;;2.10;;
7919;SDS011;18778;47.610;9.776;2023-04-24T11:54:31;2.23;;;2.07;;
7919;SDS011;18778;47.610;9.776;2023-04-24T11:56:57;5.57;;;2.50;;
7919;SDS011;18778;47.610;9.776;2023-04-24T11:59:23;5.00;;;2.60;;
7919;SDS011;18778;47.610;9.776;2023-04-24T12:01:49;3.23;;;2.40;;
7919;SDS011;18778;47.610;9.776;2023-04-24T12:04:16;4.30;;;2.40;;
7919;SDS011;18778;47.610;9.776;2023-04-24T12:07:03;3.00;;;2.23;;
7919;SDS011;18778;47.610;9.776;2023-04-24T12:09:40;3.70;;;2.60;;
7919;SDS011;18778;47.610;9.776;2023-04-24T12:12:07;2.50;;;2.10;;
7919;SDS011;18778;47.610;9.776;2023-04-24T12:14:35;2.53;;;2.23;;
7919;SDS011;18778;47.610;9.776;2023-04-24T12:17:07;3.73;;;2.60;;
7919;SDS011;18778;47.610;9.776;2023-04-24T12:19:33;4.37;;;2.53;;
7919;SDS011;18778;47.610;9.776;2023-04-24T12:22:03;4.03;;;2.27;;
7919;SDS011;18778;47.610;9.776;2023-04-24T12:24:30;3.70;;;2.60;;
7919;SDS011;18778;47.610;9.776;2023-04-24T12:26:56;5.60;;;2.30;;
7919;SDS011;18778;47.610;9.776;2023-04-24T12:29:22;2.60;;;2.40;;
7919;SDS011;18778;47.610;9.776;2023-04-24T12:31:49;3.47;;;2.77;;
7919;SDS011;18778;47.610;9.776;2023-04-24T12:34:19;2.80;;;2.27;;
7919;SDS011;18778;47.610;9.776;2023-04-24T12:36:46;6.73;;;2.53;;
7919;SDS011;18778;47.610;9.776;2023-04-24T12:39:14;3.43;;;2.67;;
7919;SDS011;18778;47.610;9.776;2023-04-24T12:41:54;2.70;;;2.40;;
7919;SDS011;18778;47.610;9.776;2023-04-24T12:44:30;2.60;;;2.40;;
7919;SDS011;18778;47.610;9.776;2023-04-24T12:46:56;3.13;;;2.00;;
7919;SDS011;18778;47.610;9.776;2023-04-24T12:49:22;2.50;;;2.30;;
7919;SDS011;18778;47.610;9.776;2023-04-24T12:51:48;7.40;;;2.73;;
7919;SDS011;18778;47.610;9.776;2023-04-24T12:54:14;4.80;;;2.57;;
7919;SDS011;18778;47.610;9.776;2023-04-24T12:56:40;2.80;;;2.60;;
7919;SDS011;18778;47.610;9.776;2023-04-24T12:59:09;2.53;;;2.33;;
7919;SDS011;18778;47.610;9.776;2023-04-24T13:01:35;4.40;;;2.70;;
7919;SDS011;18778;47.610;9.776;2023-04-24T13:04:01;3.87;;;2.40;;
7919;SDS011;18778;47.610;9.776;2023-04-24T13:06:27;3.53;;;2.20;;
7919;SDS011;18778;47.610;9.776;2023-04-24T13:08:53;2.70;;;2.03;;
7919;SDS011;18778;47.610;9.776;2023-04-24T13:11:22;2.30;;;2.10;;
7919;SDS011;18778;47.610;9.776;2023-04-24T13:13:48;3.93;;;2.20;;
7919;SDS011;18778;47.610;9.776;2023-04-24T13:16:14;2.63;;;1.93;;
7919;SDS011;18778;47.610;9.776;2023-04-24T13:18:40;3.80;;;2.20;;
7919;SDS011;18778;47.610;9.776;2023-04-24T13:21:06;3.37;;;2.20;;
7919;SDS011;18778;47.610;9.776;2023-04-24T13:23:32;5.10;;;2.00;;
7919;SDS011;18778;47.610;9.776;2023-04-24T13:25:58;2.40;;;1.93;;
7919;SDS011;18778;47.610;9.776;2023-04-24T13:28:24;3.13;;;2.00;;
7919;SDS011;18778;47.610;9.776;2023-04-24T13:30:50;3.27;;;2.20;;
7919;SDS011;18778;47.610;9.776;2023-04-24T13:33:16;2.73;;;2.53;;
7919;SDS011;18778;47.610;9.776;2023-04-24T13:35:42;4.23;;;1.90;;
7919;SDS011;18778;47.610;9.776;2023-04-24T13:38:08;2.30;;;2.10;;
7919;SDS011;18778;47.610;9.776;2023-04-24T13:40:34;2.13;;;2.03;;
7919;SDS011;18778;47.610;9.776;2023-04-24T13:43:01;2.93;;;2.30;;
7919;SDS011;18778;47.610;9.776;2023-04-24T13:45:27;2.63;;;2.30;;
7919;SDS011;18778;47.610;9.776;2023-04-24T13:47:53;2.10;;;1.90;;
7919;SDS011;18778;47.610;9.776;2023-04-24T13:50:19;2.00;;;1.90;;
7919;SDS011;18778;47.610;9.776;2023-04-24T13:52:46;4.57;;;2.20;;
7919;SDS011;18778;47.610;9.776;2023-04-24T13:55:12;2.00;;;1.80;;
7919;SDS011;18778;47.610;9.776;2023-04-24T13:57:37;2.87;;;1.80;;
7919;SDS011;18778;47.610;9.776;2023-04-24T14:00:03;3.97;;;2.07;;
7919;SDS011;18778;47.610;9.776;2023-04-24T14:02:34;2.00;;;1.90;;
7919;SDS011;18778;47.610;9.776;2023-04-24T14:05:00;2.77;;;2.10;;
7919;SDS011;18778;47.610;9.776;2023-04-24T14:07:26;2.17;;;1.87;;
7919;SDS011;18778;47.610;9.776;2023-04-24T14:09:52;3.63;;;2.13;;
7919;SDS011;18778;47.610;9.776;2023-04-24T14:12:18;2.23;;;2.03;;
7919;SDS011;18778;47.610;9.776;2023-04-24T14:14:45;3.03;;;2.20;;
7919;SDS011;18778;47.610;9.776;2023-04-24T14:17:12;2.53;;;1.80;;
7919;SDS011;18778;47.610;9.776;2023-04-24T14:19:38;2.20;;;1.60;;
7919;SDS011;18778;47.610;9.776;2023-04-24T14:22:03;1.97;;;1.50;;
7919;SDS011;18778;47.610;9.776;2023-04-24T14:24:30;1.70;;;1.60;;
7919;SDS011;18778;47.610;9.776;2023-04-24T14:26:56;2.73;;;1.60;;
7919;SDS011;18778;47.610;9.776;2023-04-24T14:29:22;1.63;;;1.53;;
7919;SDS011;18778;47.610;9.776;2023-04-24T14:31:48;1.57;;;1.30;;
7919;SDS011;18778;47.610;9.776;2023-04-24T14:34:14;4.33;;;1.73;;
7919;SDS011;18778;47.610;9.776;2023-04-24T14:36:40;2.10;;;1.90;;
7919;SDS011;18778;47.610;9.776;2023-04-24T14:39:06;2.03;;;1.90;;
7919;SDS011;18778;47.610;9.776;2023-04-24T14:41:32;2.90;;;1.90;;
7919;SDS011;18778;47.610;9.776;2023-04-24T14:44:02;3.33;;;2.03;;
7919;SDS011;18778;47.610;9.776;2023-04-24T14:46:29;2.10;;;2.00;;
7919;SDS011;18778;47.610;9.776;2023-04-24T14:48:55;2.10;;;2.00;;
7919;SDS011;18778;47.610;9.776;2023-04-24T14:51:21;5.33;;;1.80;;
7919;SDS011;18778;47.610;9.776;2023-04-24T14:53:47;2.60;;;1.80;;
7919;SDS011;18778;47.610;9.776;2023-04-24T14:56:13;2.27;;;2.07;;
7919;SDS011;18778;47.610;9.776;2023-04-24T14:58:39;1.97;;;1.77;;
7919;SDS011;18778;47.610;9.776;2023-04-24T15:01:06;1.70;;;1.53;;
7919;SDS011;18778;47.610;9.776;2023-04-24T15:03:32;2.17;;;1.63;;
7919;SDS011;18778;47.610;9.776;2023-04-24T15:05:58;2.53;;;1.70;;
7919;SDS011;18778;47.610;9.776;2023-04-24T15:08:24;1.77;;;1.67;;
7919;SDS011;18778;47.610;9.776;2023-04-24T15:10:50;2.20;;;1.80;;